sensor_id;sensor_type;location;lat;lon;timestamp;pressure;altitude;pressure_sealevel;temperature;humidity
56944;BME280;42848;42.524;12.052;2022-12-07T00:00:27;96372.63;;;10.87;100.00
56944;BME280;42848;42.524;12.052;2022-12-07T00:02:53;96374.72;;;10.90;100.00
56944;BME280;42848;42.524;12.052;2022-12-07T00:05:18;96375.50;;;10.91;100.00
56944;BME280;42848;42.524;12.052;2022-12-07T00:07:44;96375.28;;;10.75;100.00
56944;BME280;42848;42.524;12.052;2022-12-07T00:10:09;96374.19;;;10.67;100.00
56944;BME280;42848;42.524;12.052;2022-12-07T00:12:35;96371.16;;;10.69;100.00
56944;BME280;42848;42.524;12.052;2022-12-07T00:15:00;96369.47;;;10.26;100.00
56944;BME280;42848;42.524;12.052;2022-12-07T00:17:26;96362.16;;;10.77;100.00
56944;BME280;42848;42.524;12.052;2022-12-07T00:19:51;96363.50;;;10.71;100.00
56944;BME280;42848;42.524;12.052;2022-12-07T00:22:17;96366.41;;;10.36;100.00
56944;BME280;42848;42.524;12.052;2022-12-07T00:24:42;96358.56;;;10.64;100.00
56944;BME280;42848;42.524;12.052;2022-12-07T00:27:08;96349.13;;;10.70;100.00
56944;BME280;42848;42.524;12.052;2022-12-07T00:29:34;96357.00;;;10.63;100.00
56944;BME280;42848;42.524;12.052;2022-12-07T00:31:59;96349.44;;;10.69;100.00
56944;BME280;42848;42.524;12.052;2022-12-07T00:34:25;96349.03;;;10.58;100.00
56944;BME280;42848;42.524;12.052;2022-12-07T00:36:50;96338.63;;;10.60;100.00
56944;BME280;42848;42.524;12.052;2022-12-07T00:39:16;96333.09;;;10.77;100.00
56944;BME280;42848;42.524;12.052;2022-12-07T00:41:42;96337.09;;;10.80;100.00
56944;BME280;42848;42.524;12.052;2022-12-07T00:44:08;96342.69;;;10.75;100.00
56944;BME280;42848;42.524;12.052;2022-12-07T00:46:33;96339.00;;;10.79;100.00
56944;BME280;42848;42.524;12.052;2022-12-07T00:48:59;96341.28;;;10.69;100.00
56944;BME280;42848;42.524;12.052;2022-12-07T00:51:25;96348.19;;;10.87;100.00
56944;BME280;42848;42.524;12.052;2022-12-07T00:53:51;96339.38;;;10.69;100.00
56944;BME280;42848;42.524;12.052;2022-12-07T00:56:26;96344.03;;;10.90;100.00
56944;BME280;42848;42.524;12.052;2022-12-07T00:59:00;96346.41;;;10.70;100.00
56944;BME280;42848;42.524;12.052;2022-12-07T01:01:28;96344.28;;;10.76;100.00
56944;BME280;42848;42.524;12.052;2022-12-07T01:03:54;96350.78;;;10.63;100.00
56944;BME280;42848;42.524;12.052;2022-12-07T01:06:22;96344.16;;;10.72;100.00
56944;BME280;42848;42.524;12.052;2022-12-07T01:08:48;96349.25;;;10.74;100.00
56944;BME280;42848;42.524;12.052;2022-12-07T01:11:17;96350.38;;;10.73;100.00
56944;BME280;42848;42.524;12.052;2022-12-07T01:13:43;96350.84;;;10.75;100.00
56944;BME280;42848;42.524;12.052;2022-12-07T01:16:12;96350.31;;;11.02;100.00
56944;BME280;42848;42.524;12.052;2022-12-07T01:18:38;96346.41;;;10.91;100.00
56944;BME280;42848;42.524;12.052;2022-12-07T01:21:14;96348.78;;;11.14;100.00
56944;BME280;42848;42.524;12.052;2022-12-07T01:23:41;96348.28;;;10.99;100.00
56944;BME280;42848;42.524;12.052;2022-12-07T01:26:13;96355.03;;;10.93;100.00
56944;BME280;42848;42.524;12.052;2022-12-07T01:28:39;96351.06;;;10.91;100.00
56944;BME280;42848;42.524;12.052;2022-12-07T01:31:08;96356.53;;;11.24;100.00
56944;BME280;42848;42.524;12.052;2022-12-07T01:33:41;96353.91;;;10.94;100.00
56944;BME280;42848;42.524;12.052;2022-12-07T01:36:12;96352.19;;;11.10;100.00
56944;BME280;42848;42.524;12.052;2022-12-07T01:38:39;96345.84;;;11.06;100.00
56944;BME280;42848;42.524;12.052;2022-12-07T01:41:05;96344.47;;;11.13;100.00
56944;BME280;42848;42.524;12.052;2022-12-07T01:43:33;96344.44;;;11.00;100.00
56944;BME280;42848;42.524;12.052;2022-12-07T01:46:00;96333.91;;;10.99;100.00
56944;BME280;42848;42.524;12.052;2022-12-07T01:48:36;96331.84;;;11.17;100.00
56944;BME280;42848;42.524;12.052;2022-12-07T01:51:09;96328.41;;;11.07;100.00
56944;BME280;42848;42.524;12.052;2022-12-07T01:53:38;96322.84;;;10.83;100.00
56944;BME280;42848;42.524;12.052;2022-12-07T01:56:08;96325.88;;;10.81;100.00
56944;BME280;42848;42.524;12.052;2022-12-07T01:58:36;96329.66;;;10.89;100.00
56944;BME280;42848;42.524;12.052;2022-12-07T02:01:02;96327.59;;;10.65;100.00
56944;BME280;42848;42.524;12.052;2022-12-07T02:03:36;96326.81;;;10.65;100.00
56944;BME280;42848;42.524;12.052;2022-12-07T02:06:02;96316.09;;;10.89;100.00
56944;BME280;42848;42.524;12.052;2022-12-07T02:08:29;96318.72;;;10.77;100.00
56944;BME280;42848;42.524;12.052;2022-12-07T02:10:55;96317.81;;;10.73;100.00
56944;BME280;42848;42.524;12.052;2022-12-07T02:13:23;96312.44;;;10.64;100.00
56944;BME280;42848;42.524;12.052;2022-12-07T02:27:04;96304.41;;;10.68;100.00
56944;BME280;42848;42.524;12.052;2022-12-07T02:32:16;96306.28;;;10.25;100.00
56944;BME280;42848;42.524;12.052;2022-12-07T02:40:41;96298.19;;;10.67;100.00
56944;BME280;42848;42.524;12.052;2022-12-07T02:45:44;96293.97;;;10.28;100.00
56944;BME280;42848;42.524;12.052;2022-12-07T02:48:14;96296.09;;;10.14;100.00
56944;BME280;42848;42.524;12.052;2022-12-07T02:50:45;96290.31;;;10.53;100.00
56944;BME280;42848;42.524;12.052;2022-12-07T02:56:13;96295.94;;;10.48;100.00
56944;BME280;42848;42.524;12.052;2022-12-07T03:07:22;96287.28;;;10.55;100.00
56944;BME280;42848;42.524;12.052;2022-12-07T03:09:53;96288.91;;;10.47;100.00
56944;BME280;42848;42.524;12.052;2022-12-07T03:12:35;96286.19;;;10.27;100.00
56944;BME280;42848;42.524;12.052;2022-12-07T03:15:10;96285.34;;;10.56;100.00
56944;BME280;42848;42.524;12.052;2022-12-07T03:17:40;96283.88;;;10.58;100.00
56944;BME280;42848;42.524;12.052;2022-12-07T03:20:09;96285.69;;;10.54;100.00
56944;BME280;42848;42.524;12.052;2022-12-07T03:22:38;96282.91;;;10.63;100.00
56944;BME280;42848;42.524;12.052;2022-12-07T03:25:10;96281.78;;;10.64;100.00
56944;BME280;42848;42.524;12.052;2022-12-07T03:28:13;96272.28;;;10.28;100.00
56944;BME280;42848;42.524;12.052;2022-12-07T03:33:20;96273.63;;;10.64;100.00
56944;BME280;42848;42.524;12.052;2022-12-07T03:38:41;96271.81;;;10.26;100.00
56944;BME280;42848;42.524;12.052;2022-12-07T03:41:22;96272.34;;;10.11;100.00
56944;BME280;42848;42.524;12.052;2022-12-07T03:43:49;96275.84;;;10.11;100.00
56944;BME280;42848;42.524;12.052;2022-12-07T03:51:56;96268.41;;;10.79;100.00
56944;BME280;42848;42.524;12.052;2022-12-07T03:54:30;96264.44;;;10.56;100.00
56944;BME280;42848;42.524;12.052;2022-12-07T03:56:58;96268.16;;;10.51;100.00
56944;BME280;42848;42.524;12.052;2022-12-07T03:59:25;96273.25;;;10.53;100.00
56944;BME280;42848;42.524;12.052;2022-12-07T04:01:57;96262.28;;;10.41;100.00
56944;BME280;42848;42.524;12.052;2022-12-07T04:04:24;96264.03;;;10.45;100.00
56944;BME280;42848;42.524;12.052;2022-12-07T04:06:50;96268.50;;;10.41;100.00
56944;BME280;42848;42.524;12.052;2022-12-07T04:09:17;96258.09;;;10.52;100.00
56944;BME280;42848;42.524;12.052;2022-12-07T04:11:42;96268.47;;;10.71;100.00
56944;BME280;42848;42.524;12.052;2022-12-07T04:14:08;96254.50;;;10.81;100.00
56944;BME280;42848;42.524;12.052;2022-12-07T04:16:50;96252.59;;;10.81;100.00
56944;BME280;42848;42.524;12.052;2022-12-07T04:19:18;96252.78;;;10.76;100.00
56944;BME280;42848;42.524;12.052;2022-12-07T04:21:44;96249.66;;;10.66;100.00
56944;BME280;42848;42.524;12.052;2022-12-07T04:24:11;96249.94;;;10.73;100.00
56944;BME280;42848;42.524;12.052;2022-12-07T04:26:38;96251.13;;;10.84;100.00
56944;BME280;42848;42.524;12.052;2022-12-07T04:29:03;96247.50;;;10.80;100.00
56944;BME280;42848;42.524;12.052;2022-12-07T04:31:29;96248.53;;;10.67;100.00
56944;BME280;42848;42.524;12.052;2022-12-07T04:33:55;96242.59;;;10.73;100.00
56944;BME280;42848;42.524;12.052;2022-12-07T04:36:21;96254.50;;;10.81;100.00
56944;BME280;42848;42.524;12.052;2022-12-07T04:38:46;96236.47;;;10.76;100.00
56944;BME280;42848;42.524;12.052;2022-12-07T04:41:12;96240.94;;;10.81;100.00
56944;BME280;42848;42.524;12.052;2022-12-07T04:43:38;96240.72;;;10.86;100.00
56944;BME280;42848;42.524;12.052;2022-12-07T04:46:04;96244.97;;;10.75;100.00
56944;BME280;42848;42.524;12.052;2022-12-07T04:48:30;96231.72;;;10.73;100.00
56944;BME280;42848;42.524;12.052;2022-12-07T04:50:56;96227.75;;;10.71;100.00
56944;BME280;42848;42.524;12.052;2022-12-07T04:53:22;96224.81;;;10.76;100.00
56944;BME280;42848;42.524;12.052;2022-12-07T04:55:48;96233.97;;;10.71;100.00
56944;BME280;42848;42.524;12.052;2022-12-07T04:58:14;96240.63;;;10.62;100.00
56944;BME280;42848;42.524;12.052;2022-12-07T05:00:40;96228.69;;;10.54;100.00
56944;BME280;42848;42.524;12.052;2022-12-07T05:03:06;96233.44;;;10.57;100.00
56944;BME280;42848;42.524;12.052;2022-12-07T05:05:31;96235.41;;;10.69;100.00
56944;BME280;42848;42.524;12.052;2022-12-07T05:07:57;96238.09;;;10.57;100.00
56944;BME280;42848;42.524;12.052;2022-12-07T05:10:23;96251.53;;;10.53;100.00
56944;BME280;42848;42.524;12.052;2022-12-07T05:12:48;96244.19;;;10.53;100.00
56944;BME280;42848;42.524;12.052;2022-12-07T05:15:15;96236.09;;;10.66;100.00
56944;BME280;42848;42.524;12.052;2022-12-07T05:17:41;96235.38;;;10.57;100.00
56944;BME280;42848;42.524;12.052;2022-12-07T05:20:08;96229.16;;;10.56;100.00
56944;BME280;42848;42.524;12.052;2022-12-07T05:22:34;96229.81;;;10.53;100.00
56944;BME280;42848;42.524;12.052;2022-12-07T05:24:59;96225.66;;;10.56;100.00
56944;BME280;42848;42.524;12.052;2022-12-07T05:27:25;96226.97;;;10.49;100.00
56944;BME280;42848;42.524;12.052;2022-12-07T05:29:51;96230.94;;;10.52;100.00
56944;BME280;42848;42.524;12.052;2022-12-07T05:32:17;96225.25;;;10.66;100.00
56944;BME280;42848;42.524;12.052;2022-12-07T05:34:43;96230.66;;;10.66;100.00
56944;BME280;42848;42.524;12.052;2022-12-07T05:37:08;96234.97;;;10.46;100.00
56944;BME280;42848;42.524;12.052;2022-12-07T05:39:34;96234.75;;;10.51;100.00
56944;BME280;42848;42.524;12.052;2022-12-07T05:42:00;96240.63;;;10.62;100.00
56944;BME280;42848;42.524;12.052;2022-12-07T05:44:43;96240.47;;;10.58;100.00
56944;BME280;42848;42.524;12.052;2022-12-07T05:47:10;96238.59;;;10.50;100.00
56944;BME280;42848;42.524;12.052;2022-12-07T05:49:35;96234.91;;;10.54;100.00
56944;BME280;42848;42.524;12.052;2022-12-07T05:52:01;96244.72;;;10.47;100.00
56944;BME280;42848;42.524;12.052;2022-12-07T05:54:27;96246.44;;;10.51;100.00
56944;BME280;42848;42.524;12.052;2022-12-07T05:56:53;96257.28;;;9.92;100.00
56944;BME280;42848;42.524;12.052;2022-12-07T05:59:19;96236.91;;;10.45;100.00
56944;BME280;42848;42.524;12.052;2022-12-07T06:01:51;96249.34;;;10.46;100.00
56944;BME280;42848;42.524;12.052;2022-12-07T06:04:18;96245.22;;;10.11;100.00
56944;BME280;42848;42.524;12.052;2022-12-07T06:06:44;96249.94;;;10.52;100.00
56944;BME280;42848;42.524;12.052;2022-12-07T06:09:10;96243.97;;;10.59;100.00
56944;BME280;42848;42.524;12.052;2022-12-07T06:11:38;96241.84;;;10.14;100.00
56944;BME280;42848;42.524;12.052;2022-12-07T06:14:22;96248.53;;;10.25;100.00
56944;BME280;42848;42.524;12.052;2022-12-07T06:16:47;96242.72;;;10.56;100.00
56944;BME280;42848;42.524;12.052;2022-12-07T06:19:13;96246.84;;;10.62;100.00
56944;BME280;42848;42.524;12.052;2022-12-07T06:21:39;96242.56;;;10.32;100.00
56944;BME280;42848;42.524;12.052;2022-12-07T06:24:05;96240.97;;;10.31;100.00
56944;BME280;42848;42.524;12.052;2022-12-07T06:26:31;96243.84;;;10.34;100.00
56944;BME280;42848;42.524;12.052;2022-12-07T06:28:56;96241.38;;;10.41;100.00
56944;BME280;42848;42.524;12.052;2022-12-07T06:31:22;96241.13;;;10.34;100.00
56944;BME280;42848;42.524;12.052;2022-12-07T06:33:47;96248.22;;;10.47;100.00
56944;BME280;42848;42.524;12.052;2022-12-07T06:36:13;96247.75;;;10.45;100.00
56944;BME280;42848;42.524;12.052;2022-12-07T06:38:39;96244.47;;;10.61;100.00
56944;BME280;42848;42.524;12.052;2022-12-07T06:41:05;96244.56;;;10.64;100.00
56944;BME280;42848;42.524;12.052;2022-12-07T06:43:30;96244.50;;;10.31;100.00
56944;BME280;42848;42.524;12.052;2022-12-07T06:45:56;96238.94;;;10.28;100.00
56944;BME280;42848;42.524;12.052;2022-12-07T06:48:22;96243.13;;;10.25;100.00
56944;BME280;42848;42.524;12.052;2022-12-07T06:50:48;96236.56;;;10.68;100.00
56944;BME280;42848;42.524;12.052;2022-12-07T06:53:13;96241.78;;;10.73;100.00
56944;BME280;42848;42.524;12.052;2022-12-07T06:55:39;96242.84;;;10.60;100.00
56944;BME280;42848;42.524;12.052;2022-12-07T06:58:05;96240.41;;;10.67;100.00
56944;BME280;42848;42.524;12.052;2022-12-07T07:00:30;96237.91;;;10.62;100.00
56944;BME280;42848;42.524;12.052;2022-12-07T07:02:56;96238.34;;;10.64;100.00
56944;BME280;42848;42.524;12.052;2022-12-07T07:05:22;96239.25;;;10.68;100.00
56944;BME280;42848;42.524;12.052;2022-12-07T07:07:51;96240.78;;;10.77;100.00
56944;BME280;42848;42.524;12.052;2022-12-07T07:10:17;96244.16;;;10.74;100.00
56944;BME280;42848;42.524;12.052;2022-12-07T07:12:42;96249.38;;;11.00;100.00
56944;BME280;42848;42.524;12.052;2022-12-07T07:15:08;96245.94;;;10.91;100.00
56944;BME280;42848;42.524;12.052;2022-12-07T07:17:35;96247.06;;;10.90;100.00
56944;BME280;42848;42.524;12.052;2022-12-07T07:20:00;96258.84;;;10.94;100.00
56944;BME280;42848;42.524;12.052;2022-12-07T07:22:26;96247.44;;;11.01;100.00
56944;BME280;42848;42.524;12.052;2022-12-07T07:24:52;96256.84;;;11.03;100.00
56944;BME280;42848;42.524;12.052;2022-12-07T07:27:17;96249.78;;;10.90;100.00
56944;BME280;42848;42.524;12.052;2022-12-07T07:29:43;96263.38;;;10.90;100.00
56944;BME280;42848;42.524;12.052;2022-12-07T07:32:09;96252.53;;;11.02;100.00
56944;BME280;42848;42.524;12.052;2022-12-07T07:34:34;96259.38;;;11.08;100.00
56944;BME280;42848;42.524;12.052;2022-12-07T07:37:00;96260.63;;;11.11;100.00
56944;BME280;42848;42.524;12.052;2022-12-07T07:39:26;96264.53;;;11.01;100.00
56944;BME280;42848;42.524;12.052;2022-12-07T07:41:52;96254.91;;;11.04;100.00
56944;BME280;42848;42.524;12.052;2022-12-07T07:44:17;96264.91;;;11.12;100.00
56944;BME280;42848;42.524;12.052;2022-12-07T07:46:43;96275.25;;;11.19;100.00
56944;BME280;42848;42.524;12.052;2022-12-07T07:49:09;96266.38;;;11.09;100.00
56944;BME280;42848;42.524;12.052;2022-12-07T07:51:36;96266.13;;;11.02;100.00
56944;BME280;42848;42.524;12.052;2022-12-07T07:54:03;96266.59;;;11.04;100.00
56944;BME280;42848;42.524;12.052;2022-12-07T07:56:29;96267.44;;;11.17;100.00
56944;BME280;42848;42.524;12.052;2022-12-07T07:58:55;96270.50;;;11.16;100.00
56944;BME280;42848;42.524;12.052;2022-12-07T08:01:20;96275.00;;;11.11;100.00
56944;BME280;42848;42.524;12.052;2022-12-07T08:03:46;96268.88;;;11.15;100.00
56944;BME280;42848;42.524;12.052;2022-12-07T08:06:12;96275.94;;;11.16;100.00
56944;BME280;42848;42.524;12.052;2022-12-07T08:08:38;96273.44;;;11.23;100.00
56944;BME280;42848;42.524;12.052;2022-12-07T08:11:07;96282.53;;;11.27;100.00
56944;BME280;42848;42.524;12.052;2022-12-07T08:13:34;96274.16;;;11.32;100.00
56944;BME280;42848;42.524;12.052;2022-12-07T08:16:07;96273.50;;;11.35;100.00
56944;BME280;42848;42.524;12.052;2022-12-07T08:18:38;96265.25;;;11.44;100.00
56944;BME280;42848;42.524;12.052;2022-12-07T08:21:04;96269.66;;;11.36;100.00
56944;BME280;42848;42.524;12.052;2022-12-07T08:23:31;96270.69;;;11.44;100.00
56944;BME280;42848;42.524;12.052;2022-12-07T08:26:05;96273.63;;;11.51;100.00
56944;BME280;42848;42.524;12.052;2022-12-07T08:28:31;96272.50;;;11.52;100.00
56944;BME280;42848;42.524;12.052;2022-12-07T08:31:06;96271.50;;;11.23;100.00
56944;BME280;42848;42.524;12.052;2022-12-07T08:33:33;96267.38;;;11.38;100.00
56944;BME280;42848;42.524;12.052;2022-12-07T08:36:03;96262.72;;;11.38;100.00
56944;BME280;42848;42.524;12.052;2022-12-07T08:38:29;96272.38;;;11.48;100.00
56944;BME280;42848;42.524;12.052;2022-12-07T08:40:58;96274.66;;;11.46;100.00
56944;BME280;42848;42.524;12.052;2022-12-07T08:43:25;96276.22;;;11.35;100.00
56944;BME280;42848;42.524;12.052;2022-12-07T08:49:13;96283.47;;;11.43;100.00
56944;BME280;42848;42.524;12.052;2022-12-07T08:51:42;96277.38;;;11.46;100.00
56944;BME280;42848;42.524;12.052;2022-12-07T08:54:11;96284.38;;;11.47;100.00
56944;BME280;42848;42.524;12.052;2022-12-07T08:56:39;96279.75;;;11.60;100.00
56944;BME280;42848;42.524;12.052;2022-12-07T08:59:05;96284.66;;;11.66;100.00
56944;BME280;42848;42.524;12.052;2022-12-07T09:01:31;96287.34;;;11.54;100.00
56944;BME280;42848;42.524;12.052;2022-12-07T09:03:58;96291.03;;;11.71;100.00
56944;BME280;42848;42.524;12.052;2022-12-07T09:06:23;96288.81;;;11.52;100.00
56944;BME280;42848;42.524;12.052;2022-12-07T09:08:52;96284.38;;;11.35;100.00
56944;BME280;42848;42.524;12.052;2022-12-07T09:11:19;96288.25;;;11.46;100.00
56944;BME280;42848;42.524;12.052;2022-12-07T09:13:45;96282.81;;;11.58;100.00
56944;BME280;42848;42.524;12.052;2022-12-07T09:16:10;96278.75;;;11.52;100.00
56944;BME280;42848;42.524;12.052;2022-12-07T09:18:36;96276.22;;;11.47;100.00
56944;BME280;42848;42.524;12.052;2022-12-07T09:21:03;96274.28;;;11.81;100.00
56944;BME280;42848;42.524;12.052;2022-12-07T09:23:29;96276.81;;;11.98;100.00
56944;BME280;42848;42.524;12.052;2022-12-07T09:25:55;96283.94;;;12.03;100.00
56944;BME280;42848;42.524;12.052;2022-12-07T09:28:23;96280.66;;;12.09;100.00
56944;BME280;42848;42.524;12.052;2022-12-07T09:30:49;96278.16;;;12.04;100.00
56944;BME280;42848;42.524;12.052;2022-12-07T09:33:15;96281.09;;;12.11;100.00
56944;BME280;42848;42.524;12.052;2022-12-07T09:35:45;96279.06;;;12.20;100.00
56944;BME280;42848;42.524;12.052;2022-12-07T09:38:11;96281.19;;;12.15;100.00
56944;BME280;42848;42.524;12.052;2022-12-07T09:40:37;96279.03;;;12.33;100.00
56944;BME280;42848;42.524;12.052;2022-12-07T09:43:02;96278.13;;;12.41;100.00
56944;BME280;42848;42.524;12.052;2022-12-07T09:45:34;96263.84;;;12.44;100.00
56944;BME280;42848;42.524;12.052;2022-12-07T09:48:02;96278.38;;;12.23;100.00
56944;BME280;42848;42.524;12.052;2022-12-07T09:50:29;96278.84;;;12.26;100.00
56944;BME280;42848;42.524;12.052;2022-12-07T09:53:12;96278.03;;;12.37;100.00
56944;BME280;42848;42.524;12.052;2022-12-07T09:55:40;96274.94;;;12.51;100.00
56944;BME280;42848;42.524;12.052;2022-12-07T09:58:16;96272.00;;;12.32;100.00
56944;BME280;42848;42.524;12.052;2022-12-07T10:00:44;96268.38;;;12.40;100.00
56944;BME280;42848;42.524;12.052;2022-12-07T10:03:11;96263.84;;;12.44;100.00
56944;BME280;42848;42.524;12.052;2022-12-07T10:05:43;96271.78;;;12.37;100.00
56944;BME280;42848;42.524;12.052;2022-12-07T10:08:14;96269.97;;;12.29;100.00
56944;BME280;42848;42.524;12.052;2022-12-07T10:10:43;96262.13;;;12.51;100.00
56944;BME280;42848;42.524;12.052;2022-12-07T10:13:11;96258.03;;;12.58;100.00
56944;BME280;42848;42.524;12.052;2022-12-07T10:21:10;96256.78;;;12.43;100.00
56944;BME280;42848;42.524;12.052;2022-12-07T10:23:39;96264.63;;;12.57;100.00
56944;BME280;42848;42.524;12.052;2022-12-07T10:26:33;96256.91;;;12.46;100.00
56944;BME280;42848;42.524;12.052;2022-12-07T10:29:01;96256.00;;;12.42;100.00
56944;BME280;42848;42.524;12.052;2022-12-07T10:31:28;96262.00;;;12.48;100.00
56944;BME280;42848;42.524;12.052;2022-12-07T10:33:56;96265.19;;;12.62;100.00
56944;BME280;42848;42.524;12.052;2022-12-07T10:39:11;96248.38;;;12.60;100.00
56944;BME280;42848;42.524;12.052;2022-12-07T10:41:58;96245.78;;;12.64;100.00
56944;BME280;42848;42.524;12.052;2022-12-07T10:44:27;96243.84;;;12.52;100.00
56944;BME280;42848;42.524;12.052;2022-12-07T10:47:08;96246.03;;;12.46;100.00
56944;BME280;42848;42.524;12.052;2022-12-07T10:50:06;96243.78;;;12.76;100.00
56944;BME280;42848;42.524;12.052;2022-12-07T10:52:46;96239.97;;;12.65;100.00
56944;BME280;42848;42.524;12.052;2022-12-07T11:01:25;96227.28;;;12.57;100.00
56944;BME280;42848;42.524;12.052;2022-12-07T11:07:02;96208.19;;;12.69;100.00
56944;BME280;42848;42.524;12.052;2022-12-07T11:09:57;96207.94;;;12.74;100.00
56944;BME280;42848;42.524;12.052;2022-12-07T11:13:04;96207.88;;;12.87;100.00
56944;BME280;42848;42.524;12.052;2022-12-07T11:15:47;96202.69;;;12.81;100.00
56944;BME280;42848;42.524;12.052;2022-12-07T11:18:26;96200.16;;;12.89;100.00
56944;BME280;42848;42.524;12.052;2022-12-07T11:26:21;96201.22;;;12.84;100.00
56944;BME280;42848;42.524;12.052;2022-12-07T11:37:21;96179.69;;;12.95;100.00
56944;BME280;42848;42.524;12.052;2022-12-07T11:39:54;96191.88;;;13.13;100.00
56944;BME280;42848;42.524;12.052;2022-12-07T11:42:26;96184.41;;;13.10;100.00
56944;BME280;42848;42.524;12.052;2022-12-07T11:45:21;96174.25;;;12.95;100.00
56944;BME280;42848;42.524;12.052;2022-12-07T11:48:22;96173.38;;;12.91;100.00
56944;BME280;42848;42.524;12.052;2022-12-07T11:50:52;96178.03;;;12.90;100.00
56944;BME280;42848;42.524;12.052;2022-12-07T11:53:33;96175.69;;;12.76;100.00
56944;BME280;42848;42.524;12.052;2022-12-07T11:56:16;96170.66;;;13.06;100.00
56944;BME280;42848;42.524;12.052;2022-12-07T11:59:03;96166.44;;;12.93;100.00
56944;BME280;42848;42.524;12.052;2022-12-07T12:06:42;96161.91;;;13.13;100.00
56944;BME280;42848;42.524;12.052;2022-12-07T12:17:40;96152.78;;;12.77;100.00
56944;BME280;42848;42.524;12.052;2022-12-07T12:22:45;96162.41;;;13.03;100.00
56944;BME280;42848;42.524;12.052;2022-12-07T12:25:25;96155.94;;;13.07;100.00
56944;BME280;42848;42.524;12.052;2022-12-07T12:27:55;96147.13;;;13.14;100.00
56944;BME280;42848;42.524;12.052;2022-12-07T12:30:43;96150.56;;;13.11;100.00
56944;BME280;42848;42.524;12.052;2022-12-07T12:33:22;96140.03;;;13.25;100.00
56944;BME280;42848;42.524;12.052;2022-12-07T12:54:34;96130.56;;;13.19;100.00
56944;BME280;42848;42.524;12.052;2022-12-07T12:57:24;96134.28;;;12.99;100.00
56944;BME280;42848;42.524;12.052;2022-12-07T13:02:36;96146.94;;;13.07;100.00
56944;BME280;42848;42.524;12.052;2022-12-07T13:05:18;96150.41;;;12.76;100.00
56944;BME280;42848;42.524;12.052;2022-12-07T13:10:34;96133.25;;;12.19;100.00
56944;BME280;42848;42.524;12.052;2022-12-07T13:15:46;96136.34;;;12.46;100.00
56944;BME280;42848;42.524;12.052;2022-12-07T13:21:00;96132.78;;;12.58;100.00
56944;BME280;42848;42.524;12.052;2022-12-07T13:23:31;96125.34;;;12.70;100.00
56944;BME280;42848;42.524;12.052;2022-12-07T13:28:33;96125.13;;;12.91;100.00
56944;BME280;42848;42.524;12.052;2022-12-07T13:31:11;96122.50;;;12.95;100.00
56944;BME280;42848;42.524;12.052;2022-12-07T13:33:38;96123.38;;;12.83;100.00
56944;BME280;42848;42.524;12.052;2022-12-07T13:36:04;96122.56;;;12.82;100.00
56944;BME280;42848;42.524;12.052;2022-12-07T13:38:36;96113.19;;;12.96;100.00
56944;BME280;42848;42.524;12.052;2022-12-07T13:41:16;96122.56;;;12.98;100.00
56944;BME280;42848;42.524;12.052;2022-12-07T13:43:52;96117.22;;;13.02;100.00
56944;BME280;42848;42.524;12.052;2022-12-07T13:46:30;96116.09;;;13.03;100.00
56944;BME280;42848;42.524;12.052;2022-12-07T13:48:58;96123.72;;;12.97;100.00
56944;BME280;42848;42.524;12.052;2022-12-07T13:51:27;96112.81;;;12.97;100.00
56944;BME280;42848;42.524;12.052;2022-12-07T13:54:00;96121.16;;;12.89;100.00
56944;BME280;42848;42.524;12.052;2022-12-07T13:56:31;96130.03;;;12.86;100.00
56944;BME280;42848;42.524;12.052;2022-12-07T13:58:58;96116.59;;;12.93;100.00
56944;BME280;42848;42.524;12.052;2022-12-07T14:01:25;96121.00;;;12.81;100.00
56944;BME280;42848;42.524;12.052;2022-12-07T14:03:51;96123.47;;;12.59;100.00
56944;BME280;42848;42.524;12.052;2022-12-07T14:06:22;96125.34;;;12.70;100.00
56944;BME280;42848;42.524;12.052;2022-12-07T14:09:05;96128.75;;;12.67;100.00
56944;BME280;42848;42.524;12.052;2022-12-07T14:11:31;96118.97;;;12.50;100.00
56944;BME280;42848;42.524;12.052;2022-12-07T14:14:00;96121.59;;;12.47;100.00
56944;BME280;42848;42.524;12.052;2022-12-07T14:18:58;96113.44;;;12.47;100.00
56944;BME280;42848;42.524;12.052;2022-12-07T14:21:30;96124.31;;;12.47;100.00
56944;BME280;42848;42.524;12.052;2022-12-07T14:24:20;96121.94;;;12.73;100.00
56944;BME280;42848;42.524;12.052;2022-12-07T14:26:48;96125.53;;;12.77;100.00
56944;BME280;42848;42.524;12.052;2022-12-07T14:31:53;96121.31;;;12.80;100.00
56944;BME280;42848;42.524;12.052;2022-12-07T14:34:22;96115.84;;;12.64;100.00
56944;BME280;42848;42.524;12.052;2022-12-07T14:36:49;96121.09;;;12.57;100.00
56944;BME280;42848;42.524;12.052;2022-12-07T14:39:14;96121.50;;;12.71;100.00
56944;BME280;42848;42.524;12.052;2022-12-07T14:41:40;96115.88;;;12.52;100.00
56944;BME280;42848;42.524;12.052;2022-12-07T14:44:23;96116.53;;;12.61;100.00
56944;BME280;42848;42.524;12.052;2022-12-07T14:46:49;96116.72;;;12.68;100.00
56944;BME280;42848;42.524;12.052;2022-12-07T14:49:16;96114.44;;;12.70;100.00
56944;BME280;42848;42.524;12.052;2022-12-07T14:51:42;96124.38;;;12.63;100.00
56944;BME280;42848;42.524;12.052;2022-12-07T14:54:19;96117.53;;;12.69;100.00
56944;BME280;42848;42.524;12.052;2022-12-07T14:56:46;96120.59;;;12.67;100.00
56944;BME280;42848;42.524;12.052;2022-12-07T14:59:16;96120.22;;;12.53;100.00
56944;BME280;42848;42.524;12.052;2022-12-07T15:01:42;96119.31;;;12.49;100.00
56944;BME280;42848;42.524;12.052;2022-12-07T15:04:08;96119.22;;;12.45;100.00